DGMMC EDDV-EDDV

Flight info

Callsign DGMMC
Flight time 1h 10m
Altitude 4000
Route LOCAL VFR
Aircraft DA42/L-V/N

Departure

Time 2026-05-01 10:59
Airport Hannover Airport (EDDV)

Arrival

Time 2026-05-01 12:09
Airport Hannover Airport (EDDV)
Time Latitude Longitude Altitude Speed Heading
2026-05-01 10:48 52.46312 9.69340 176 ft 0 kts 323°
2026-05-01 10:54 52.46317 9.69327 176 ft 4 kts 289°
2026-05-01 10:54 52.46332 9.69285 176 ft 4 kts 336°
2026-05-01 10:54 52.46355 9.69264 177 ft 5 kts 307°
2026-05-01 10:55 52.46340 9.69153 177 ft 15 kts 247°
2026-05-01 10:55 52.46289 9.68947 175 ft 22 kts 244°
2026-05-01 10:55 52.46242 9.68717 175 ft 20 kts 269°
2026-05-01 10:55 52.46326 9.68554 175 ft 19 kts 324°
2026-05-01 10:56 52.46388 9.68480 176 ft 0 kts 322°
2026-05-01 10:57 52.46426 9.68432 176 ft 12 kts 323°
2026-05-01 10:57 52.46476 9.68391 177 ft 6 kts 47°
2026-05-01 10:58 52.46483 9.68419 176 ft 0 kts 93°
2026-05-01 10:58 52.46475 9.68693 180 ft 55 kts 93°
2026-05-01 10:58 52.46454 9.69467 351 ft 73 kts 94°
2026-05-01 10:58 52.46437 9.70359 650 ft 81 kts 93°
2026-05-01 10:59 52.46164 9.71097 956 ft 86 kts 162°
2026-05-01 10:59 52.45559 9.70960 1356 ft 87 kts 182°
2026-05-01 10:59 52.44964 9.70773 1769 ft 88 kts 184°
2026-05-01 10:59 52.44370 9.70573 2123 ft 86 kts 182°
2026-05-01 11:00 52.43778 9.70389 2436 ft 88 kts 184°
2026-05-01 11:00 52.43096 9.70203 2490 ft 113 kts 184°
2026-05-01 11:00 52.42255 9.69983 2499 ft 128 kts 184°
2026-05-01 11:00 52.41363 9.69748 2490 ft 133 kts 184°
2026-05-01 11:01 52.40508 9.70062 2483 ft 127 kts 137°
2026-05-01 11:01 52.39924 9.71136 2485 ft 126 kts 128°
2026-05-01 11:01 52.39350 9.72240 2481 ft 127 kts 128°
2026-05-01 11:01 52.38779 9.73351 2482 ft 127 kts 128°
2026-05-01 11:02 52.38289 9.74539 2480 ft 126 kts 111°
2026-05-01 11:02 52.37984 9.75892 2479 ft 127 kts 110°
2026-05-01 11:02 52.37679 9.77248 2491 ft 130 kts 109°
2026-05-01 11:02 52.37358 9.78655 2495 ft 131 kts 110°
2026-05-01 11:03 52.37034 9.80090 2478 ft 136 kts 110°
2026-05-01 11:03 52.36710 9.81513 2477 ft 132 kts 110°
2026-05-01 11:03 52.36233 9.82742 2490 ft 134 kts 144°
2026-05-01 11:03 52.35295 9.82947 2481 ft 141 kts 182°
2026-05-01 11:04 52.34323 9.82704 2487 ft 142 kts 184°
2026-05-01 11:04 52.33343 9.82445 2487 ft 142 kts 184°
2026-05-01 11:04 52.32373 9.82182 2481 ft 140 kts 184°
2026-05-01 11:04 52.31412 9.81913 2483 ft 140 kts 184°
2026-05-01 11:05 52.30449 9.81647 2482 ft 140 kts 184°
2026-05-01 11:05 52.29493 9.81384 2483 ft 139 kts 184°
2026-05-01 11:05 52.28528 9.81185 2493 ft 140 kts 181°
2026-05-01 11:05 52.27594 9.80654 2489 ft 144 kts 202°
2026-05-01 11:06 52.26756 9.79949 2923 ft 125 kts 201°
2026-05-01 11:06 52.26068 9.79333 3501 ft 101 kts 200°
2026-05-01 11:06 52.25476 9.78804 3902 ft 96 kts 198°
2026-05-01 11:07 52.24285 9.77724 4581 ft 100 kts 198°
2026-05-01 11:07 52.23673 9.77165 4888 ft 102 kts 198°
2026-05-01 11:07 52.23062 9.76605 5235 ft 103 kts 198°
2026-05-01 11:07 52.22427 9.76024 5549 ft 106 kts 198°
2026-05-01 11:08 52.21784 9.75432 5893 ft 106 kts 197°
2026-05-01 11:08 52.21130 9.74832 6216 ft 109 kts 198°
2026-05-01 11:08 52.19724 9.73549 6490 ft 128 kts 200°
2026-05-01 11:09 52.18908 9.72801 6489 ft 139 kts 201°
2026-05-01 11:09 52.18042 9.72005 6497 ft 147 kts 200°
2026-05-01 11:09 52.17134 9.71171 6497 ft 151 kts 201°
2026-05-01 11:10 52.15320 9.69506 6492 ft 148 kts 201°
2026-05-01 11:10 52.14427 9.68689 6493 ft 147 kts 200°
2026-05-01 11:10 52.13551 9.67887 6491 ft 146 kts 201°
2026-05-01 11:10 52.12662 9.67074 6491 ft 147 kts 201°
2026-05-01 11:11 52.11766 9.66255 6492 ft 148 kts 200°
2026-05-01 11:11 52.10868 9.65434 6489 ft 147 kts 201°
2026-05-01 11:11 52.09977 9.64620 6498 ft 147 kts 200°
2026-05-01 11:11 52.09071 9.63794 6490 ft 148 kts 201°
2026-05-01 11:12 52.08177 9.62977 6487 ft 147 kts 201°
2026-05-01 11:12 52.07283 9.62163 6492 ft 149 kts 200°
2026-05-01 11:12 52.06371 9.61333 6482 ft 150 kts 201°
2026-05-01 11:12 52.05468 9.60508 6494 ft 150 kts 201°
2026-05-01 11:13 52.04530 9.59659 6483 ft 159 kts 201°
2026-05-01 11:13 52.03543 9.58762 6487 ft 165 kts 201°
2026-05-01 11:13 52.02525 9.57831 6481 ft 169 kts 202°
2026-05-01 11:13 52.01522 9.56914 6493 ft 168 kts 202°
2026-05-01 11:14 52.00490 9.55978 6490 ft 169 kts 202°
2026-05-01 11:14 51.99458 9.55038 6489 ft 170 kts 201°
2026-05-01 11:14 51.98421 9.54097 6492 ft 171 kts 201°
2026-05-01 11:14 51.97385 9.53156 6490 ft 170 kts 201°
2026-05-01 11:15 51.96361 9.52224 6481 ft 164 kts 202°
2026-05-01 11:15 51.95372 9.51327 6496 ft 164 kts 201°
2026-05-01 11:15 51.94359 9.50413 6489 ft 168 kts 202°
2026-05-01 11:15 51.93324 9.49476 6487 ft 174 kts 202°
2026-05-01 11:16 51.92261 9.48512 6485 ft 175 kts 202°
2026-05-01 11:16 51.91209 9.47555 6476 ft 171 kts 201°
2026-05-01 11:16 51.90197 9.46637 6484 ft 166 kts 201°
2026-05-01 11:16 51.89195 9.45733 6479 ft 164 kts 201°
2026-05-01 11:17 51.88196 9.44830 6488 ft 166 kts 201°
2026-05-01 11:17 51.87178 9.43912 6481 ft 168 kts 201°
2026-05-01 11:17 51.86159 9.42989 6481 ft 167 kts 202°
2026-05-01 11:17 51.85154 9.42078 6363 ft 165 kts 201°
2026-05-01 11:18 51.84144 9.41169 6163 ft 167 kts 201°
2026-05-01 11:18 51.83121 9.40248 5957 ft 168 kts 201°
2026-05-01 11:18 51.82092 9.39320 5752 ft 170 kts 201°
2026-05-01 11:18 51.81067 9.38393 5550 ft 168 kts 201°
2026-05-01 11:19 51.80050 9.37475 5351 ft 169 kts 201°
2026-05-01 11:19 51.79027 9.36557 5146 ft 167 kts 200°
2026-05-01 11:19 51.78010 9.35643 4941 ft 168 kts 201°
2026-05-01 11:19 51.76998 9.34728 4730 ft 166 kts 201°
2026-05-01 11:20 51.76005 9.33835 4525 ft 165 kts 200°
2026-05-01 11:20 51.74989 9.32927 4339 ft 169 kts 201°
2026-05-01 11:20 51.73973 9.32010 4116 ft 164 kts 203°
2026-05-01 11:20 51.72992 9.31124 3913 ft 159 kts 202°
2026-05-01 11:21 51.72032 9.30267 3726 ft 157 kts 203°
2026-05-01 11:21 51.71050 9.29394 3506 ft 164 kts 203°
2026-05-01 11:21 51.70060 9.28532 3231 ft 159 kts 202°
2026-05-01 11:21 51.69109 9.27685 2974 ft 154 kts 203°
2026-05-01 11:22 51.68119 9.27146 2730 ft 149 kts 182°
2026-05-01 11:22 51.67056 9.26925 2482 ft 158 kts 182°
2026-05-01 11:22 51.66014 9.26723 2481 ft 152 kts 181°
2026-05-01 11:22 51.64980 9.26504 2474 ft 147 kts 181°
2026-05-01 11:23 51.63974 9.26285 2464 ft 144 kts 181°
2026-05-01 11:23 51.62992 9.26072 2477 ft 142 kts 182°
2026-05-01 11:23 51.62015 9.25875 2476 ft 139 kts 182°
2026-05-01 11:23 51.61067 9.25850 2482 ft 134 kts 169°
2026-05-01 11:24 51.60149 9.26013 2484 ft 134 kts 173°
2026-05-01 11:24 51.59206 9.25994 2469 ft 135 kts 175°
2026-05-01 11:24 51.57400 9.25934 2494 ft 129 kts 173°
2026-05-01 11:25 51.56504 9.25970 2476 ft 126 kts 173°
2026-05-01 11:25 51.54902 9.26539 2486 ft 116 kts 144°
2026-05-01 11:25 51.54184 9.27254 2486 ft 128 kts 144°
2026-05-01 11:26 51.53434 9.27994 2470 ft 124 kts 144°
2026-05-01 11:26 51.52050 9.29353 2490 ft 117 kts 145°
2026-05-01 11:26 51.51345 9.30003 2482 ft 116 kts 152°
2026-05-01 11:27 51.50589 9.30490 2506 ft 122 kts 154°
2026-05-01 11:27 51.49746 9.31037 2479 ft 132 kts 154°
2026-05-01 11:27 51.48919 9.31591 2483 ft 122 kts 154°
2026-05-01 11:27 51.48145 9.32013 2491 ft 115 kts 157°
2026-05-01 11:28 51.47372 9.32362 2521 ft 115 kts 163°
2026-05-01 11:28 51.46612 9.32445 2421 ft 106 kts 171°
2026-05-01 11:28 51.45900 9.32474 2377 ft 98 kts 163°
2026-05-01 11:29 51.44544 9.32505 2074 ft 94 kts 173°
2026-05-01 11:29 51.43930 9.32501 1884 ft 85 kts 163°
2026-05-01 11:29 51.42774 9.33336 1549 ft 95 kts 135°
2026-05-01 11:30 51.42412 9.34171 1302 ft 89 kts 114°
2026-05-01 11:30 51.42303 9.35119 1171 ft 85 kts 101°
2026-05-01 11:30 51.42241 9.36059 1085 ft 86 kts 101°
2026-05-01 11:30 51.42198 9.37018 955 ft 85 kts 100°
2026-05-01 11:31 51.42152 9.37914 861 ft 72 kts 100°
2026-05-01 11:31 51.42109 9.38620 846 ft 76 kts 99°
2026-05-01 11:31 51.42074 9.39522 1079 ft 83 kts 99°
2026-05-01 11:31 51.42013 9.40428 1401 ft 83 kts 95°
2026-05-01 11:32 51.42250 9.41324 1746 ft 99 kts 54°
2026-05-01 11:32 51.42757 9.42167 1965 ft 118 kts 52°
2026-05-01 11:32 51.43302 9.43146 2321 ft 121 kts 53°
2026-05-01 11:32 51.43948 9.44188 2455 ft 142 kts 45°
2026-05-01 11:33 51.44623 9.45393 2495 ft 151 kts 56°
2026-05-01 11:33 51.45295 9.46752 2482 ft 158 kts 56°
2026-05-01 11:33 51.45976 9.48113 2480 ft 154 kts 56°
2026-05-01 11:33 51.46659 9.49447 2489 ft 155 kts 55°
2026-05-01 11:34 51.47342 9.50763 2481 ft 152 kts 55°
2026-05-01 11:34 51.47996 9.52064 2488 ft 152 kts 56°
2026-05-01 11:34 51.48666 9.53384 2483 ft 152 kts 56°
2026-05-01 11:34 51.49337 9.54684 2493 ft 151 kts 56°
2026-05-01 11:35 51.50000 9.55967 2489 ft 148 kts 56°
2026-05-01 11:35 51.50660 9.57242 2521 ft 148 kts 56°
2026-05-01 11:35 51.51308 9.58442 2907 ft 132 kts 52°
2026-05-01 11:35 51.51842 9.59476 3657 ft 108 kts 56°
2026-05-01 11:36 51.52281 9.60287 4285 ft 87 kts 58°
2026-05-01 11:36 51.52703 9.60987 4869 ft 88 kts 56°
2026-05-01 11:36 51.53137 9.61691 5429 ft 88 kts 56°
2026-05-01 11:36 51.53590 9.62373 5919 ft 90 kts 54°
2026-05-01 11:37 51.54047 9.63076 6280 ft 92 kts 55°
2026-05-01 11:37 51.54499 9.63794 6641 ft 90 kts 55°
2026-05-01 11:37 51.54939 9.64510 6966 ft 95 kts 56°
2026-05-01 11:37 51.55532 9.65282 6983 ft 133 kts 26°
2026-05-01 11:38 51.56494 9.65712 6991 ft 150 kts 31°
2026-05-01 11:38 51.57601 9.65742 6987 ft 175 kts 344°
2026-05-01 11:38 51.58598 9.64518 6992 ft 186 kts 319°
2026-05-01 11:38 51.59640 9.63271 6983 ft 187 kts 337°
2026-05-01 11:39 51.60836 9.62531 6972 ft 181 kts 347°
2026-05-01 11:39 51.62032 9.61918 6978 ft 181 kts 346°
2026-05-01 11:39 51.63231 9.61265 6972 ft 181 kts 346°
2026-05-01 11:39 51.64017 9.60822 6973 ft 180 kts 345°
2026-05-01 11:40 51.65590 9.59935 6976 ft 182 kts 346°
2026-05-01 11:40 51.66787 9.59261 6976 ft 182 kts 346°
2026-05-01 11:40 51.67586 9.58811 6972 ft 184 kts 346°
2026-05-01 11:40 51.68793 9.58130 6974 ft 184 kts 345°
2026-05-01 11:41 51.70006 9.57445 6966 ft 184 kts 345°
2026-05-01 11:41 51.71203 9.56768 6967 ft 181 kts 345°
2026-05-01 11:41 51.72389 9.56098 6973 ft 181 kts 345°
2026-05-01 11:41 51.73575 9.55429 6970 ft 179 kts 346°
2026-05-01 11:42 51.74745 9.54765 6970 ft 179 kts 346°
2026-05-01 11:42 51.75915 9.54107 6970 ft 177 kts 346°
2026-05-01 11:42 51.77090 9.53441 6977 ft 180 kts 345°
2026-05-01 11:42 51.78268 9.52773 6967 ft 178 kts 345°
2026-05-01 11:43 51.79431 9.52113 6966 ft 176 kts 345°
2026-05-01 11:43 51.80591 9.51456 6967 ft 177 kts 345°
2026-05-01 11:43 51.81750 9.50798 6966 ft 175 kts 345°
2026-05-01 11:44 51.84029 9.49505 6974 ft 175 kts 345°
2026-05-01 11:44 51.85193 9.48845 6974 ft 179 kts 345°
2026-05-01 11:44 51.86375 9.48174 6975 ft 180 kts 345°
2026-05-01 11:44 51.87564 9.47497 6969 ft 181 kts 345°
2026-05-01 11:45 51.88747 9.46822 6968 ft 179 kts 345°
2026-05-01 11:45 51.89917 9.46156 6918 ft 177 kts 345°
2026-05-01 11:45 51.91108 9.45484 6664 ft 184 kts 345°
2026-05-01 11:45 51.92326 9.44790 6444 ft 188 kts 344°
2026-05-01 11:46 51.93565 9.44083 6127 ft 189 kts 344°
2026-05-01 11:46 51.94810 9.43371 5815 ft 190 kts 343°
2026-05-01 11:46 51.96054 9.42661 5577 ft 188 kts 344°
2026-05-01 11:46 51.97277 9.41962 5328 ft 185 kts 344°
2026-05-01 11:47 51.98476 9.41274 5070 ft 180 kts 344°
2026-05-01 11:47 51.99644 9.40607 4806 ft 176 kts 344°
2026-05-01 11:47 52.00791 9.39951 4556 ft 175 kts 343°
2026-05-01 11:47 52.01931 9.39297 4297 ft 173 kts 343°
2026-05-01 11:48 52.03076 9.38644 4056 ft 175 kts 343°
2026-05-01 11:48 52.04250 9.37974 3814 ft 182 kts 343°
2026-05-01 11:48 52.05419 9.37301 3546 ft 172 kts 342°
2026-05-01 11:48 52.06506 9.36675 3287 ft 164 kts 342°
2026-05-01 11:49 52.07594 9.36052 3047 ft 169 kts 342°
2026-05-01 11:49 52.08685 9.35426 2785 ft 163 kts 342°
2026-05-01 11:49 52.09741 9.34817 2524 ft 159 kts 343°
2026-05-01 11:49 52.10747 9.34235 2473 ft 147 kts 344°
2026-05-01 11:50 52.11681 9.33698 2484 ft 143 kts 345°
2026-05-01 11:50 52.12643 9.33148 2452 ft 145 kts 343°
2026-05-01 11:50 52.13583 9.32606 2470 ft 144 kts 343°
2026-05-01 11:50 52.14518 9.32067 2465 ft 141 kts 342°
2026-05-01 11:51 52.15449 9.31537 2459 ft 142 kts 343°
2026-05-01 11:51 52.16386 9.31008 2467 ft 145 kts 343°
2026-05-01 11:51 52.17357 9.30460 2460 ft 151 kts 344°
2026-05-01 11:51 52.18330 9.29890 2473 ft 146 kts 343°
2026-05-01 11:52 52.19302 9.29324 2457 ft 148 kts 343°
2026-05-01 11:52 52.20269 9.28773 2459 ft 148 kts 343°
2026-05-01 11:52 52.21250 9.28237 2468 ft 149 kts 343°
2026-05-01 11:52 52.22278 9.27679 2448 ft 159 kts 344°
2026-05-01 11:53 52.23295 9.27102 2473 ft 156 kts 343°
2026-05-01 11:53 52.24336 9.26477 2457 ft 159 kts 336°
2026-05-01 11:53 52.25299 9.25607 2470 ft 157 kts 331°
2026-05-01 11:53 52.26326 9.24879 2456 ft 161 kts 346°
2026-05-01 11:54 52.27385 9.24415 2454 ft 154 kts 347°
2026-05-01 11:54 52.28396 9.23976 2463 ft 148 kts 348°
2026-05-01 11:54 52.29381 9.23564 2458 ft 144 kts 356°
2026-05-01 11:54 52.30359 9.23874 2475 ft 147 kts 26°
2026-05-01 11:55 52.31348 9.24477 2468 ft 152 kts 25°
2026-05-01 11:55 52.32343 9.25106 2463 ft 154 kts 26°
2026-05-01 11:55 52.33196 9.26086 2455 ft 145 kts 60°
2026-05-01 11:55 52.33446 9.27600 2459 ft 133 kts 88°
2026-05-01 11:56 52.33526 9.29076 2460 ft 131 kts 90°
2026-05-01 11:56 52.33620 9.30563 2453 ft 127 kts 88°
2026-05-01 11:56 52.33694 9.31860 2451 ft 104 kts 89°
2026-05-01 11:56 52.33778 9.33010 2478 ft 105 kts 88°
2026-05-01 11:57 52.33857 9.34305 2469 ft 120 kts 91°
2026-05-01 11:57 52.33866 9.35651 2459 ft 114 kts 94°
2026-05-01 11:57 52.33891 9.36959 2449 ft 112 kts 93°
2026-05-01 11:57 52.33935 9.38170 2456 ft 103 kts 87°
2026-05-01 11:58 52.34083 9.39286 2460 ft 97 kts 83°
2026-05-01 11:58 52.34284 9.40390 2391 ft 109 kts 76°
2026-05-01 11:58 52.35076 9.42624 2139 ft 121 kts 56°
2026-05-01 11:59 52.35642 9.43686 2012 ft 127 kts 57°
2026-05-01 11:59 52.36241 9.44790 1883 ft 133 kts 54°
2026-05-01 11:59 52.36841 9.45886 1868 ft 123 kts 53°
2026-05-01 12:00 52.38088 9.47823 1870 ft 116 kts 47°
2026-05-01 12:00 52.38685 9.48675 1851 ft 110 kts 47°
2026-05-01 12:00 52.39780 9.50155 1937 ft 92 kts 46°
2026-05-01 12:01 52.40291 9.50825 1960 ft 99 kts 46°
2026-05-01 12:01 52.40819 9.51594 1944 ft 107 kts 47°
2026-05-01 12:01 52.41374 9.52395 1965 ft 105 kts 48°
2026-05-01 12:01 52.41805 9.53350 2097 ft 105 kts 69°
2026-05-01 12:02 52.42049 9.54486 2071 ft 108 kts 80°
2026-05-01 12:02 52.42216 9.55712 2080 ft 109 kts 86°
2026-05-01 12:02 52.42234 9.56934 2092 ft 105 kts 98°
2026-05-01 12:02 52.42165 9.58142 2052 ft 106 kts 98°
2026-05-01 12:03 52.42073 9.59308 2068 ft 100 kts 115°
2026-05-01 12:03 52.41564 9.60035 2047 ft 102 kts 159°
2026-05-01 12:03 52.40859 9.59977 2032 ft 106 kts 199°
2026-05-01 12:03 52.40321 9.59133 1936 ft 112 kts 235°
2026-05-01 12:04 52.40178 9.57898 1956 ft 111 kts 277°
2026-05-01 12:04 52.40558 9.56847 1963 ft 109 kts 317°
2026-05-01 12:04 52.41246 9.56436 1973 ft 104 kts
2026-05-01 12:04 52.41862 9.56911 2019 ft 98 kts 57°
2026-05-01 12:05 52.41918 9.57880 2098 ft 86 kts 128°
2026-05-01 12:05 52.41342 9.56605 2201 ft 116 kts 302°
2026-05-01 12:05 52.42091 9.56315 2174 ft 118 kts 20°
2026-05-01 12:06 52.42792 9.56860 2009 ft 103 kts 35°
2026-05-01 12:06 52.43402 9.57462 1754 ft 104 kts 38°
2026-05-01 12:06 52.43964 9.58237 1628 ft 111 kts 49°
2026-05-01 12:06 52.44497 9.59228 1468 ft 122 kts 58°
2026-05-01 12:07 52.44979 9.60462 1268 ft 130 kts 67°
2026-05-01 12:07 52.45354 9.61794 1048 ft 121 kts 74°
2026-05-01 12:07 52.45548 9.62935 891 ft 96 kts 85°
2026-05-01 12:07 52.45592 9.64054 765 ft 100 kts 95°
2026-05-01 12:08 52.45554 9.65187 558 ft 95 kts 94°
2026-05-01 12:08 52.45533 9.66231 419 ft 90 kts 94°
2026-05-01 12:08 52.45504 9.67183 301 ft 80 kts 93°
2026-05-01 12:08 52.45489 9.68067 199 ft 72 kts 97°
2026-05-01 12:09 52.45464 9.68742 176 ft 48 kts 94°
2026-05-01 12:09 52.45474 9.69105 181 ft 18 kts 47°
2026-05-01 12:09 52.45530 9.69138 180 ft 5 kts
2026-05-01 12:09 52.45578 9.69139 178 ft 8 kts
2026-05-01 12:10 52.45661 9.69152 176 ft 14 kts
2026-05-01 12:10 52.45864 9.69107 172 ft 16 kts
2026-05-01 12:10 52.45959 9.69019 172 ft 17 kts 327°
2026-05-01 12:11 52.46153 9.68777 173 ft 17 kts 322°
2026-05-01 12:11 52.46251 9.68785 175 ft 15 kts 59°
2026-05-01 12:11 52.46289 9.68933 175 ft 16 kts 70°
2026-05-01 12:12 52.46331 9.69112 177 ft 24 kts 69°
2026-05-01 12:12 52.46347 9.69276 177 ft 11 kts 150°
2026-05-01 12:12 52.46307 9.69378 176 ft 9 kts 53°
2026-05-01 12:12 52.46331 9.69373 176 ft 0 kts 344°